Tiempo atmosférico en la estación meteorológica de Toledo, Toledo (515 m.)



Fecha
DESCASC
Temp. máxima en grados centígrados (hora)
DESCASC
Temp. mínima en grados centígrados (hora)
DESCASC
Temp. media en grados centígrados
DESCASC
Racha de viento máxima en m/sg (hora)
DESCASC
Velocidad máxima media en intervalos de 10 minutos(hora)
DESCASC
Precipitaciones diarias en mm
DESCASC
Precipitaciones de 00:00 a 06:00 en mm
DESCASC
Precipitaciones de 06:00 a 12:00 en mm
DESCASC
Precipitaciones de 12:00 a 18:00 en mm
DESCASC
Precipitaciones de 18:00 a 24:00 en mm
DESCASC
18-04-2019 16.3 (00:00) 10.3 (23:59) 13.3 8.61 (00:20) 5.56 (12:40) 17.8 1 4.2 4.6 8
17-04-2019 25.8 (15:40) 10.9 (07:40) 18.3 10.83 (09:10) 6.94 (11:40) 0 0 0 0 0
16-04-2019 24.6 (17:50) 8.5 (00:00) 16.6 8.61 (23:50) 6.11 (23:50) 0 0 0 0 0
15-04-2019 26.9 (15:30) 12.2 (00:00) 19.5 18.33 (19:20) 12.5 (19:30) 0 0 0 0 0
14-04-2019 25.3 (17:00) 11.1 (00:00) 18.2 8.61 (15:30) 5.28 (17:50) 0 0 0 0 0
13-04-2019 24.1 (18:00) 6.3 (00:00) 15.2 8.06 (19:30) 5 (20:00) 0 0 0 0 0
12-04-2019 21.3 (17:50) 3.5 (07:20) 12.4 10 (15:10) 5.28 (15:00) 0 0 0 0 0
11-04-2019 19 (16:00) 3.8 (00:00) 11.4 11.11 (19:30) 6.11 (19:30) 0 0 0 0 0
10-04-2019 14.4 (14:50) 5.9 (00:00) 10.1 10.28 (18:50) 6.39 (18:50) 0.8 0 0 0.8 0
09-04-2019 15.4 (19:10) 6.8 (00:00) 11.1 16.67 (15:20) 11.11 (14:10) 0 0 0 0 0
08-04-2019 18.2 (17:20) 8.8 (00:00) 13.5 14.44 (16:30) 9.17 (14:40) 1.2 0.2 1 0 0
07-04-2019 14.4 (16:50) 6.2 (00:00) 10.3 13.06 (16:20) 8.33 (00:50) 0 0 0 0 0
06-04-2019 12.6 (17:30) 4.4 (00:00) 8.5 19.17 (18:00) 11.94 (16:20) 1.6 0 1 0.6 0
05-04-2019 11.1 (17:40) 6.3 (00:00) 8.7 15.83 (17:50) 9.72 (18:00) 1.8 0 1.2 0.6 0
04-04-2019 17.9 (18:40) 2.6 (00:00) 10.2 8.89 (19:00) 5.28 (16:30) 0 0 0 0 0
03-04-2019 19.2 (17:00) 7.3 (07:50) 13.3 14.72 (15:10) 9.17 (15:10) 0 0 0 0 0
02-04-2019 20.6 (16:50) 7.4 (00:00) 14 10 (17:40) 6.67 (17:40) 0.2 0 0 0.2 0
01-04-2019 20 (17:20) 9.7 (00:00) 14.8 7.22 (20:10) 5 (20:00) 0.6 0 0 0 0.6
31-03-2019 14.6 (17:40) 9.1 (00:00) 11.9 10.83 (00:30) 7.22 (00:50) 0.4 0 0 0.4 0
30-03-2019 21 (16:30) 6.1 (00:00) 13.5 11.94 (01:10) 7.78 (00:50) 0 0 0 0 0
29-03-2019 20.4 (16:40) 6.1 (00:00) 13.2 10.83 (23:59) 6.94 (23:59) 0 0 0 0 0
28-03-2019 20.8 (16:10) 4.9 (00:00) 12.8 8.89 (12:10) 5.56 (12:10) 0 0 0 0 0
27-03-2019 19.7 (16:40) 4.8 (00:00) 12.3 12.78 (02:20) 7.78 (02:20) 0 0 0 0 0
26-03-2019 23.4 (16:00) 4.8 (00:00) 14.1 11.67 (22:40) 6.39 (15:30) 0 0 0 0 0
25-03-2019 23.6 (15:50) 6.2 (00:00) 14.9 11.67 (23:40) 6.94 (23:40) 0 0 0 0 0
24-03-2019 22.6 (16:30) 7.8 (00:00) 15.2 12.78 (13:50) 6.67 (13:50) 0 0 0 0 0
23-03-2019 21.6 (15:10) 5.8 (00:00) 13.7 11.67 (15:00) 7.22 (14:40) 0 0 0 0 0
22-03-2019 19.7 (17:10) 3.1 (00:00) 11.4 8.89 (13:50) 5 (02:50) 0 0 0 0 0
21-03-2019 17.6 (16:10) 3.6 (00:00) 10.6 8.06 (03:50) 4.72 (04:40) 0 0 0 0 0

Gráficas

Temp. máximas Temp. mínimas Temp. medias Precipitaciones Rachas de viento máximas Velocidades máximas media en intervalos de 10 minutos

Datos horarios

Fecha y hora oficial Temperatura (ºC) Velocidad del viento (km/h) Dirección del viento Racha (km/h) Dirección de racha Precipitación (mm) Presión (hPa) Tendencia (hPa) Humedad (%)
2019-04-19 23:00:00 9.4 10 Este 24 Este 0.8 958.9 2.3 99
2019-04-19 22:00:00 9.4 12 Este 18 Este 0.8 958.6 2.2 98
2019-04-19 21:00:00 9.4 10 Este 18 Sudeste 2 957.7 1.3 98
2019-04-19 20:00:00 9.6 9 Este 18 Este 2.2 956.6 0.2 96
2019-04-19 19:00:00 10 10 Este 23 Este 1.8 956.4 0.1 95
2019-04-19 18:00:00 10.4 17 Este 27 Este 1 956.4 0.2 93
2019-04-19 17:00:00 11.1 18 Este 31 Este 0.4 956.4 0.7 92
2019-04-19 16:00:00 11.2 14 Este 29 Este 2.2 956.3 0.6 94
2019-04-19 15:00:00 11.5 14 Este 31 Este 1.8 956.2 0.7 93
2019-04-19 14:00:00 13.4 16 Este 25 Este 0 955.7 0.4 76
2019-04-19 13:00:00 13.6 16 Este 29 Este 0 955.7 0.9 74
2019-04-19 12:00:00 13.1 15 Este 24 Este 0 955.5 1 82
2019-04-19 11:00:00 11.8 16 Este 23 Este 0 955.3 1.4 90
2019-04-19 10:00:00 11.2 9 Este 16 Este 0 954.8 1.5 96
2019-04-19 09:00:00 10.1 8 Este 11 Este 0 954.5 1.6 100
2019-04-19 08:00:00 9.6 4 Este 5 Este 0 953.9 1 100
2019-04-19 07:00:00 9.5 0 Calma 6 Noroeste 0.2 953.3 0.5 100
2019-04-19 06:00:00 9.4 3 Norte 5 Noroeste 0 952.9 0.1 100
2019-04-19 05:00:00 9.3 3 Oeste 7 Oeste 0 952.9 -0.1 99
2019-04-19 04:00:00 9.5 5 Oeste 8 Oeste 0 952.8 -0.1 99
2019-04-19 03:00:00 9.9 4 Sudoeste 7 Norte 0 952.8 -0.2 97
2019-04-19 02:00:00 10 4 Noroeste 8 Oeste 0 953 0.1 99
2019-04-19 01:00:00 10.2 0 Calma 8 Oeste 0.2 952.9 0.4 99
2019-04-19 00:00:00 10.3 4 Oeste 5 Oeste 0.4 953 1.3 99
2019-04-18 23:00:00 10.5 3 Este 6 Nordeste 5.2 952.9 1.3 97
2019-04-18 22:00:00 10.5 4 Oeste 6 Oeste 0.2 952.5 1.1 96
2019-04-18 21:00:00 10.7 0 Calma 17 Nordeste 2 951.7 0.6 91
2019-04-18 20:00:00 11.9 11 Este 19 Nordeste 0.2 951.6 0.3 88
2019-04-18 19:00:00 12.6 8 Nordeste 20 Nordeste 0 951.4 -0.7 78
2019-04-18 18:00:00 14.3 11 Este 18 Este 0 951.1 -1.1 73
2019-04-18 17:00:00 13.7 8 Este 16 Sudeste 0 951.3 -1.4 70
2019-04-18 16:00:00 12.3 10 Sudeste 17 Sudeste 0 952.1 -0.8 81
2019-04-18 15:00:00 11.1 5 Este 27 Sur 3 952.2 -1.1 90
2019-04-18 14:00:00 11.3 10 Sudeste 23 Este 1 952.7 -0.9 93
2019-04-18 13:00:00 11.1 14 Sudeste 28 Este 0.6 952.9 -0.1 93
2019-04-18 12:00:00 11.4 12 Este 18 Este 1.6 953.3 0.2 95
2019-04-18 11:00:00 11 11 Este 18 Sudeste 1 953.6 1.1 97
2019-04-18 10:00:00 10.9 10 Este 17 Este 0.4 953 0.7 97
2019-04-18 09:00:00 10.8 11 Este 20 Este 0.2 953.1 0.7 97
2019-04-18 08:00:00 10.7 11 Este 16 Este 0.2 952.5 0.1 97
2019-04-18 07:00:00 10.8 9 Este 15 Este 0.8 952.3 -0.7 97
2019-04-18 06:00:00 11.2 5 Este 8 Este 0.2 952.4 -1 94
2019-04-18 05:00:00 11.3 2 Nordeste 17 Noroeste 0.4 952.4 -1.2 91
2019-04-18 04:00:00 11.8 9 Norte 17 Oeste 0.4 953 0 88
2019-04-18 03:00:00 12.9 9 Sudoeste 20 Sudoeste 0 953.4 0.8 77
2019-04-18 02:00:00 13.2 9 Oeste 19 Noroeste 0 953.6 1.6 75
2019-04-18 01:00:00 14 11 Noroeste 31 Oeste 0 953 1.6 76
2019-04-18 00:00:00 16.3 5 Norte 18 Sudeste 0 952.6 2 65
2019-04-17 23:00:00 17 10 Sudeste 17 Sudeste 0 952 2.5 61
2019-04-17 22:00:00 18 5 Nordeste 16 Nordeste 0 951.4 2 52
2019-04-17 21:00:00 18.5 8 Este 32 Noroeste 0 950.6 2.2 50
2019-04-17 20:00:00 20.3 19 Noroeste 31 Noroeste 0 949.5 2 42
2019-04-17 19:00:00 22.4 19 Oeste 32 Oeste 0 949.4 0.9 34
2019-04-17 18:00:00 22.8 18 Oeste 29 Noroeste 0 948.4 -0.8 33
2019-04-17 17:00:00 23.9 13 Oeste 24 Noroeste 0 947.5 -2.7 30
2019-04-17 16:00:00 25.2 15 Oeste 26 Sudeste 0 948.5 -3 27
2019-04-17 15:00:00 25.1 15 Sur 28 Sur 0 949.2 -3 27
2019-04-17 14:00:00 24.1 17 Sudeste 33 Sudeste 0 950.2 -2.4 32
2019-04-17 13:00:00 22.2 19 Este 37 Este 0 951.5 -0.8 40
2019-04-17 12:00:00 18.7 23 Sudeste 37 Este 0 952.2 -0.8 51
2019-04-17 11:00:00 15.9 21 Sudeste 36 Sudeste 0 952.6 -0.4 60
2019-04-17 10:00:00 13.9 22 Sudeste 39 Sudeste 0 952.3 -0.5 67
2019-04-17 09:00:00 12.2 23 Sudeste 37 Este 0 953 0.1 75
2019-04-17 08:00:00 11.1 17 Este 28 Sudeste 0 953 0 79
2019-04-17 07:00:00 11.1 17 Este 34 Sudeste 0 952.8 -0.7 78
2019-04-17 06:00:00 12 23 Sudeste 35 Sudeste 0 952.9 -0.8 74
2019-04-17 05:00:00 12.6 19 Sudeste 30 Este 0 953 -1 72
2019-04-17 04:00:00 13 17 Este 30 Este 0 953.5 -0.5 70
2019-04-17 03:00:00 13.9 18 Este 30 Este 0 953.7 0.1 67
2019-04-17 02:00:00 15.5 15 Este 30 Sudeste 0 954 0.9 61
2019-04-17 01:00:00 16.7 15 Sudeste 32 Este 0 954 0.8 56
2019-04-17 00:00:00 17.8 22 Este 31 Este 0 953.6 0.5 39
2019-04-16 23:00:00 17.5 9 Este 15 Sudeste 0 953.1 0.1 32
2019-04-16 22:00:00 18.7 10 Este 13 Sudeste 0 953.2 0 29
2019-04-16 21:00:00 21.7 10 Sudeste 23 Sudeste 0 953.1 -0.6 24
2019-04-16 20:00:00 23.3 14 Sudeste 24 Sudeste 0 953 -1.7 20
2019-04-16 19:00:00 24.5 15 Sudeste 26 Sudeste 0 953.2 -2.5 21
2019-04-16 18:00:00 24.6 12 Sur 26 Sur 0 953.7 -2.9 24
2019-04-16 17:00:00 23.8 11 Sudeste 26 Sur 0 954.7 -2.5 24
2019-04-16 16:00:00 23.3 12 Sur 26 Sur 0 955.7 -2 23
2019-04-16 15:00:00 22.6 8 Sur 23 Sudeste 0 956.6 -1.9 23
2019-04-16 14:00:00 21.4 10 Sudeste 30 Sudeste 0 957.2 -1.4 27
2019-04-16 13:00:00 19.9 8 Sur 23 Sur 0 957.7 -0.8 37
2019-04-16 12:00:00 17.9 9 Este 18 Sudeste 0 958.5 0.3 42
2019-04-16 11:00:00 15.8 9 Sudeste 16 Sudeste 0 958.6 0.6 56
2019-04-16 10:00:00 13.2 9 Este 14 Este 0 958.5 0.7 67
2019-04-16 09:00:00 10.5 5 Sur 6 Sudoeste 0 958.2 0.3 81
2019-04-16 08:00:00 9 3 Este 5 Este 0 958 -0.1 87
2019-04-16 07:00:00 8.9 2 Sudeste 6 Nordeste 0 957.8 -0.3 89
2019-04-16 06:00:00 9.3 0 Calma 5 Sudoeste 0 957.9 0.2 89
2019-04-16 05:00:00 10.1 4 Este 7 Este 0 958.1 0.8 84
2019-04-16 04:00:00 10 4 Norte 6 Sudoeste 0 958.1 0.7 88
2019-04-16 03:00:00 10.4 0 Calma 5 Norte 0 957.7 0.8 86
2019-04-16 02:00:00 10.8 0 Calma 8 Norte 0 957.3 1.2 84
2019-04-16 01:00:00 11.3 3 Nordeste 13 Noroeste 0 957.4 2.4 80
2019-04-16 00:00:00 12.2 9 Noroeste 23 Oeste 0 956.9 3 74
2019-04-15 23:00:00 13.5 20 Oeste 37 Oeste 0 956.1 2.5 66
2019-04-15 22:00:00 14.8 23 Oeste 45 Oeste 0 955 3.2 57
2019-04-15 21:00:00 15.4 33 Oeste 60 Noroeste 0 953.9 -- 60
2019-04-15 20:00:00 16.7 40 Noroeste 66 Oeste 0 953.6 3.1 54
2019-04-15 19:00:00 22.1 36 Oeste 55 Sudoeste 0 951.8 1.2 36
2019-04-15 18:00:00 24.8 35 Oeste 60 Oeste 0 -- -- 20
2019-04-15 17:00:00 25.7 34 Oeste 53 Oeste 0 950.5 -1 23
2019-04-15 16:00:00 26.1 27 Oeste 51 Oeste 0 950.6 -1.6 25
2019-04-15 15:00:00 26.3 23 Sudoeste 44 Oeste 0 951 -1.6 26
2019-04-15 14:00:00 25.5 20 Sudoeste 40 Oeste 0 951.5 -1.5 34
2019-04-15 13:00:00 24.2 19 Sudoeste 40 Oeste 0 952.2 -0.7 38
2019-04-15 12:00:00 23.3 5 Sudeste 16 Sudeste 0 952.6 -0.6 46
2019-04-15 11:00:00 19.7 9 Sudeste 14 Sudeste 0 953 -0.3 58
2019-04-15 10:00:00 16.7 9 Sudeste 19 Este 0 952.9 -0.3 66
2019-04-15 09:00:00 13.8 6 Sudeste 15 Este 0 953.2 -0.3 76
2019-04-15 08:00:00 13.2 4 Sudeste 10 Sudeste 0 953.3 -0.6 79
2019-04-15 07:00:00 13.3 0 Calma 9 Este 0 953.2 -0.9 79
2019-04-15 06:00:00 14.1 7 Este 10 Este 0 953.5 -1.4 76
2019-04-15 05:00:00 14.6 0 Calma 5 Sudoeste 0 953.9 -1.2 76
2019-04-15 04:00:00 15.5 2 Este 4 Norte 0 954.1 -1.2 72
2019-04-15 03:00:00 16 0 Calma 5 Oeste 0 954.9 -0.6 70
2019-04-15 02:00:00 16.8 2 Sudoeste 6 Sudoeste 0 955.1 -0.5 67
2019-04-15 01:00:00 17.5 2 Sudoeste 10 Noroeste 0 955.3 0 65
2019-04-15 00:00:00 17.8 6 Noroeste 12 Oeste 0 955.5 0.5 62
2019-04-14 23:00:00 18.5 7 Oeste 13 Oeste 0 955.6 0.9 58
2019-04-14 22:00:00 19.5 9 Noroeste 23 Noroeste 0 955.3 0.7 55
2019-04-14 21:00:00 20.7 14 Noroeste 27 Noroeste 0 955 0.4 51
2019-04-14 20:00:00 23.2 17 Oeste 30 Oeste 0 954.7 -0.5 44
2019-04-14 19:00:00 24.3 18 Oeste 30 Oeste 0 954.6 -1.3 39
2019-04-14 18:00:00 25 16 Oeste 31 Oeste 0 954.6 -2 37
2019-04-14 17:00:00 24.7 15 Oeste 30 Oeste 0 955.2 -1.8 37
2019-04-14 16:00:00 24.1 15 Oeste 31 Oeste 0 955.9 -1.6 40
2019-04-14 15:00:00 23.1 12 Oeste 31 Oeste 0 956.6 -1.4 44
2019-04-14 14:00:00 22.1 12 Oeste 25 Sudoeste 0 957 -1.1 44
2019-04-14 13:00:00 20.3 13 Oeste 26 Oeste 0 957.5 -0.5 49
2019-04-14 12:00:00 18.4 13 Oeste 22 Oeste 0 958 0.1 61
2019-04-14 11:00:00 16.3 14 Oeste 21 Oeste 0 958.1 0.4 72
2019-04-14 10:00:00 14.1 12 Oeste 17 Oeste 0 958 0.8 81
2019-04-14 09:00:00 12.2 3 Sudoeste 10 Oeste 0 957.9 0.4 78
2019-04-14 08:00:00 11.3 8 Noroeste 10 Noroeste 0 957.7 0 84
2019-04-14 07:00:00 11.7 6 Noroeste 8 Noroeste 0 957.2 -0.8 78
2019-04-14 06:00:00 12.4 4 Oeste 11 Noroeste 0 957.5 -0.5 74
2019-04-14 05:00:00 13.3 8 Noroeste 17 Oeste 0 957.7 -0.5 68
2019-04-14 04:00:00 14.1 12 Oeste 19 Oeste 0 958 -0.3 61
2019-04-14 03:00:00 13.8 9 Oeste 12 Oeste 0 958 -0.3 51
2019-04-14 02:00:00 14.1 7 Sudoeste 19 Oeste 0 958.2 0 46
2019-04-14 01:00:00 14.5 8 Oeste 15 Oeste 0 958.3 0.5 42
2019-04-14 00:00:00 15 3 Sudoeste 10 Noroeste 0 958.3 1.2 37
2019-04-13 23:00:00 15.6 7 Noroeste 10 Noroeste 0 958.2 1.4 29
2019-04-13 22:00:00 17.4 8 Oeste 23 Noroeste 0 957.8 1.3 23
2019-04-13 21:00:00 19.5 14 Noroeste 24 Noroeste 0 957.1 0.5 20
2019-04-13 20:00:00 22 18 Oeste 29 Noroeste 0 956.8 -0.2 12
2019-04-13 19:00:00 23.8 11 Noroeste 27 Oeste 0 956.5 -1 11
2019-04-13 18:00:00 23.9 13 Noroeste 26 Noroeste 0 956.6 -1.2 12
2019-04-13 17:00:00 23.4 11 Oeste 25 Oeste 0 957 -1.4 12
2019-04-13 16:00:00 22.6 7 Noroeste 22 Sudoeste 0 957.5 -1.5 11
2019-04-13 15:00:00 21.9 9 Sudoeste 21 Oeste 0 957.8 -1.6 17
2019-04-13 14:00:00 21.1 6 Noroeste 18 Noroeste 0 958.4 -1 22
2019-04-13 13:00:00 18.9 7 Norte 21 Norte 0 959 -0.3 27
2019-04-13 12:00:00 17 9 Nordeste 19 Norte 0 959.4 0.1 32
2019-04-13 11:00:00 15.1 6 Norte 14 Norte 0 959.4 0.8 35
2019-04-13 10:00:00 11.7 4 Sur 6 Sur 0 959.3 1.2 46
2019-04-13 09:00:00 7.8 0 Calma 5 Sur 0 959.3 1.5 56
2019-04-13 08:00:00 6.5 0 Calma 5 Sudoeste 0 958.6 0.7 59
2019-04-13 07:00:00 7.1 0 Calma 10 Nordeste 0 958.1 0.3 55
2019-04-13 06:00:00 7.8 0 Calma 4 Sudoeste 0 957.8 -0.5 52
2019-04-13 05:00:00 8.3 3 Norte 7 Este 0 957.9 -0.2 50
2019-04-13 04:00:00 9.2 3 Sudeste 5 Este 0 957.8 -0.2 47
2019-04-13 03:00:00 10.2 6 Este 12 Este 0 958.3 0.3 44
2019-04-13 02:00:00 11.3 5 Sudeste 17 Norte 0 958.1 0.6 40
2019-04-13 01:00:00 11.1 10 Norte 13 Norte 0 958 1 40
2019-04-13 00:00:00 11.7 4 Norte 15 Norte 0 958 1.7 39
2019-04-12 23:00:00 13 13 Norte 21 Nordeste 0 957.5 1.5 37
2019-04-12 22:00:00 14.1 14 Norte 20 Norte 0 957 1.2 34
2019-04-12 21:00:00 16.2 11 Norte 24 Norte 0 956.3 0.5 28
2019-04-12 20:00:00 19.8 14 Noroeste 27 Noroeste 0 956 0 25
2019-04-12 19:00:00 20.5 15 Noroeste 28 Norte 0 955.8 -1 26
2019-04-12 18:00:00 21.2 13 Norte 31 Oeste 0 955.8 -1.7 24
2019-04-12 17:00:00 20.5 15 Norte 35 Norte 0 956 -1.9 26
2019-04-12 16:00:00 19.5 16 Oeste 36 Noroeste 0 956.8 -1.8 29
2019-04-12 15:00:00 18.4 19 Noroeste 34 Noroeste 0 957.5 -1.6 31
2019-04-12 14:00:00 17.9 13 Noroeste 35 Noroeste 0 957.9 -1.2 33
2019-04-12 13:00:00 16 13 Noroeste 26 Norte 0 958.6 -0.6 39
2019-04-12 12:00:00 14.6 8 Oeste 15 Sur 0 959.1 -0.1 42
2019-04-12 11:00:00 12.5 9 Sudeste 13 Sudeste 0 959.1 0.1 50
2019-04-12 10:00:00 9.2 7 Sudeste 10 Sudeste 0 959.2 0.5 61
2019-04-12 09:00:00 5 2 Sudeste 7 Nordeste 0 959.2 0.6 75
2019-04-12 08:00:00 3.9 3 Norte 5 Nordeste 0 959 0.6 76
2019-04-12 07:00:00 3.8 3 Sur 4 Sur 0 958.7 0.2 76
2019-04-12 06:00:00 4.5 0 Calma 5 Sur 0 958.6 -0.1 72
2019-04-12 05:00:00 6.3 4 Sur 5 Sur 0 958.4 -0.5 63
2019-04-12 04:00:00 6.7 0 Calma 5 Sudeste 0 958.5 -0.2 60
2019-04-12 03:00:00 7.7 0 Calma 6 Este 0 958.7 0.2 58
2019-04-12 02:00:00 8.7 3 Este 10 Este 0 958.9 0.4 52
2019-04-12 01:00:00 9.3 10 Nordeste 17 Norte 0 958.7 0.8 51
2019-04-12 00:00:00 9.5 13 Norte 17 Nordeste 0 958.5 1.3 49
2019-04-11 23:00:00 11.8 15 Nordeste 21 Nordeste 0 958.5 1.8 42
2019-04-11 22:00:00 12.2 14 Nordeste 25 Norte 0 957.9 1.4 40
2019-04-11 21:00:00 14 18 Norte 34 Norte 0 957.2 0.6 35
2019-04-11 20:00:00 16.8 19 Noroeste 40 Noroeste 0 956.7 0.1 27
2019-04-11 19:00:00 18.1 16 Noroeste 27 Norte 0 956.5 -0.6 26
2019-04-11 18:00:00 16.8 18 Norte 34 Noroeste 0 956.6 -1.1 31
2019-04-11 17:00:00 17.3 12 Norte 31 Noroeste 0 956.6 -1.4 30
2019-04-11 16:00:00 19 18 Noroeste 31 Noroeste 0 957.1 -1.5 28
2019-04-11 15:00:00 16 7 Norte 22 Noroeste 0 957.7 -1.3 36
2019-04-11 14:00:00 16.4 9 Norte 21 Noroeste 0 958 -1 37
2019-04-11 13:00:00 14.7 8 Nordeste 15 Nordeste 0 958.6 -0.3 38
2019-04-11 12:00:00 13.5 5 Norte 18 Nordeste 0 959 0.4 50
2019-04-11 11:00:00 11.4 9 Norte 15 Nordeste 0 959 0.6 57
2019-04-11 10:00:00 9.1 2 Norte 6 Sur 0 958.9 0.9 71
2019-04-11 09:00:00 5.8 2 Oeste 5 Nordeste 0 958.6 1 86
2019-04-11 08:00:00 3.8 2 Noroeste 4 Norte 0 958.4 0.7 91
2019-04-11 07:00:00 4 0 Calma 6 Nordeste 0 958 0.8 92
2019-04-11 06:00:00 4 3 Oeste 7 Sudoeste 0 957.6 0.4 92
2019-04-11 05:00:00 5.2 4 Oeste 8 Nordeste 0 957.7 0.4 86
2019-04-11 04:00:00 5.9 0 Calma 9 Nordeste 0 957.2 0.2 83
2019-04-11 03:00:00 6.6 4 Noroeste 8 Noroeste 0 957.2 0.4 80
2019-04-11 02:00:00 7.5 3 Nordeste 13 Noroeste 0 957.3 0.8 76
2019-04-11 01:00:00 8 8 Oeste 14 Oeste 0 957 1 76
2019-04-11 00:00:00 8.1 3 Oeste 13 Noroeste 0 956.8 1.8 76
2019-04-10 23:00:00 8.4 12 Noroeste 20 Noroeste 0 956.5 2 73
2019-04-10 22:00:00 9.5 8 Oeste 15 Noroeste 0 956 1.6 75
2019-04-10 21:00:00 10.3 10 Oeste 23 Noroeste 0 955 1.3 73
2019-04-10 20:00:00 11.5 14 Noroeste 24 Norte 0 954.5 0.4 65
2019-04-10 19:00:00 10.7 17 Norte 37 Norte 0 954.4 0.3 76
2019-04-10 18:00:00 13.2 9 Sudoeste 15 Oeste 0 953.7 -0.1 67
2019-04-10 17:00:00 10.7 9 Sudoeste 36 Norte 0.8 954.1 0.1 82
2019-04-10 16:00:00 11.7 7 Sur 30 Norte 0 954.1 -0.1 66
2019-04-10 15:00:00 14 15 Norte 29 Noroeste 0 953.8 -0.8 46
2019-04-10 14:00:00 13.5 18 Noroeste 34 Oeste 0 954 -1 44
2019-04-10 13:00:00 13.4 16 Oeste 36 Oeste 0 954.2 -0.6 48
2019-04-10 12:00:00 12 18 Oeste 31 Oeste 0 954.6 -0.1 54
2019-04-10 11:00:00 10.6 13 Oeste 29 Oeste 0 955 0.8 66
2019-04-10 10:00:00 8.6 16 Oeste 30 Oeste 0 954.8 0.6 75
2019-04-10 09:00:00 6.8 5 Sudoeste 16 Oeste 0 954.7 0.7 83
2019-04-10 08:00:00 6 8 Oeste 24 Oeste 0 954.2 0.1 84
2019-04-10 07:00:00 6.3 12 Oeste 21 Oeste 0 954.2 0.2 83
2019-04-10 06:00:00 6.7 9 Oeste 22 Oeste 0 954 -0.1 80
2019-04-10 05:00:00 6.9 10 Oeste 18 Oeste 0 954.1 -0.3 81
2019-04-10 04:00:00 7.4 6 Oeste 21 Oeste 0 954 -0.3 80
2019-04-10 03:00:00 7.6 7 Oeste 22 Oeste 0 954.1 -0.2 79
2019-04-10 02:00:00 8.6 9 Oeste 21 Noroeste 0 954.4 0.4 75
2019-04-10 01:00:00 9.5 15 Oeste 25 Noroeste 0 954.3 0.7 71
2019-04-10 00:00:00 10.6 16 Oeste 33 Oeste 0 954.3 1.4 65
2019-04-09 23:00:00 10.6 16 Oeste 25 Oeste 0 954 1.6 62
2019-04-09 22:00:00 10.9 13 Noroeste 26 Noroeste 0 953.6 1.7 59
2019-04-09 21:00:00 12.2 19 Oeste 39 Oeste 0 952.9 0.7 54
2019-04-09 20:00:00 14 27 Oeste 53 Oeste 0 952.4 0.1 50
2019-04-09 19:00:00 15.3 34 Oeste 53 Oeste 0 951.9 -0.4 43
2019-04-09 18:00:00 10.8 26 Noroeste 51 Norte 0 952.2 -0.8 71
2019-04-09 17:00:00 13 24 Oeste 51 Oeste 0 952.3 -0.8 54
2019-04-09 16:00:00 14.3 34 Oeste 60 Oeste 0 952.3 -1.4 53
2019-04-09 15:00:00 12.8 30 Oeste 58 Oeste 0 953 -0.7 61
2019-04-09 14:00:00 11.9 31 Oeste 48 Oeste 0 953.1 -0.8 61
2019-04-09 13:00:00 11.7 32 Oeste 52 Oeste 0 953.7 -0.6 62
2019-04-09 12:00:00 11.8 17 Oeste 38 Oeste 0 953.7 -0.8 64
2019-04-09 11:00:00 10.4 25 Oeste 42 Oeste 0 953.9 -0.4 68
2019-04-09 10:00:00 9.5 14 Oeste 26 Oeste 0 954.3 0.2 70
2019-04-09 09:00:00 7.9 8 Oeste 20 Oeste 0 954.5 0.4 82
2019-04-09 08:00:00 7.7 12 Oeste 23 Oeste 0 954.3 0.2 82
2019-04-09 07:00:00 7.1 9 Oeste 17 Oeste 0 954.1 -0.2 82
2019-04-09 06:00:00 6.8 11 Noroeste 20 Oeste 0 954.1 -0.2 84
2019-04-09 05:00:00 7.4 15 Oeste 23 Oeste 0 954.1 0 81
2019-04-09 04:00:00 7.8 16 Oeste 23 Oeste 0 954.3 0.5 78
2019-04-09 03:00:00 7.9 11 Noroeste 23 Oeste 0 954.3 0.5 76
2019-04-09 02:00:00 9 15 Noroeste 24 Noroeste 0 954.1 0.7 72
2019-04-09 01:00:00 9.2 10 Noroeste 21 Oeste 0 953.8 1.2 75
2019-04-09 00:00:00 10 17 Oeste 27 Oeste 0 953.8 1.8 70
2019-04-08 23:00:00 11.1 20 Noroeste 40 Oeste 0 953.4 1.8 64
2019-04-08 22:00:00 12.5 22 Oeste 35 Noroeste 0 952.6 1.1 46
2019-04-08 21:00:00 13.7 20 Oeste 39 Oeste 0 952 0.6 46
2019-04-08 20:00:00 16 26 Oeste 45 Oeste 0 951.6 -0.1 38
2019-04-08 19:00:00 16.3 28 Oeste 48 Oeste 0 951.5 -0.7 37
2019-04-08 18:00:00 18 25 Oeste 45 Oeste 0 951.4 -1.4 35
2019-04-08 17:00:00 18 28 Oeste 52 Oeste 0 951.7 -1.5 37
2019-04-08 16:00:00 17.2 26 Oeste 42 Oeste 0 952.2 -1.2 44
2019-04-08 15:00:00 17.2 25 Oeste 48 Noroeste 0 952.8 -0.9 47
2019-04-08 14:00:00 15.8 28 Oeste 43 Noroeste 0 953.2 -0.3 52
2019-04-08 13:00:00 15.1 22 Oeste 36 Oeste 0 953.4 -0.2 56
2019-04-08 12:00:00 13.7 19 Oeste 31 Sudoeste 0 953.7 0.4 66
2019-04-08 11:00:00 11.8 16 Oeste 26 Oeste 0 953.5 0.6 83
2019-04-08 10:00:00 10.1 9 Sudoeste 16 Sudoeste 0.2 953.6 1 98
2019-04-08 09:00:00 9.6 0 Calma 5 Sudoeste 0.4 953.3 0.9 97
2019-04-08 08:00:00 9 0 Calma 4 Sur 0.2 952.9 0.2 98
2019-04-08 07:00:00 9.2 2 Sur 4 Oeste 0.2 952.6 -0.1 96
2019-04-08 06:00:00 9.4 2 Norte 4 Norte 0 952.4 -0.7 93
2019-04-08 05:00:00 9.3 3 Norte 5 Noroeste 0 952.7 -0.7 93
2019-04-08 04:00:00 9.1 2 Norte 9 Oeste 0 952.7 -0.9 94
2019-04-08 03:00:00 8.8 6 Oeste 11 Oeste 0 953.1 -0.4 94
2019-04-08 02:00:00 9.3 3 Oeste 6 Este 0 953.4 -0.3 90
2019-04-08 01:00:00 9.6 2 Sudeste 9 Nordeste 0.2 953.6 -0.1 89
2019-04-08 00:00:00 9.9 6 Este 13 Este 0 953.5 -0.1 82
2019-04-07 23:00:00 10.1 7 Sudeste 12 Sudeste 0 953.7 0.1 81
2019-04-07 22:00:00 10.1 5 Sur 8 Sur 0 953.7 0.8 80
2019-04-07 21:00:00 10.2 5 Sudoeste 19 Oeste 0 953.6 1 77
2019-04-07 20:00:00 10.7 13 Oeste 27 Oeste 0 953.6 1.3 76
2019-04-07 19:00:00 12.3 17 Oeste 33 Oeste 0 952.9 0.5 60
2019-04-07 18:00:00 13.2 24 Oeste 40 Oeste 0 952.6 0.4 54
2019-04-07 17:00:00 14.1 27 Oeste 47 Oeste 0 952.3 0.1 47
2019-04-07 16:00:00 13.7 25 Oeste 41 Oeste 0 952.4 0 45
2019-04-07 15:00:00 13.8 22 Oeste 38 Oeste 0 952.2 0.3 45
2019-04-07 14:00:00 13.1 22 Oeste 36 Noroeste 0 952.2 0.4 50
2019-04-07 13:00:00 11.7 24 Oeste 36 Oeste 0 952.4 1.3 52
2019-04-07 12:00:00 11.4 22 Oeste 37 Oeste 0 951.9 1.3 55
2019-04-07 11:00:00 9.9 24 Oeste 40 Oeste 0 951.8 2.1 68
2019-04-07 10:00:00 8.4 27 Oeste 43 Oeste 0 951.1 2.3 75
2019-04-07 09:00:00 7.1 23 Oeste 40 Oeste 0 950.6 2.5 83
2019-04-07 08:00:00 6.7 18 Oeste 38 Oeste 0 949.7 1.8 86
2019-04-07 07:00:00 6.5 20 Oeste 39 Oeste 0 948.8 1.2 85
2019-04-07 06:00:00 6.5 21 Oeste 41 Oeste 0 948.1 0.6 84
2019-04-07 05:00:00 6.9 22 Oeste 33 Oeste 0 947.9 0.5 81
2019-04-07 04:00:00 6.8 19 Noroeste 28 Noroeste 0 947.6 0.4 79
2019-04-07 03:00:00 6.6 17 Oeste 33 Oeste 0 947.5 0.6 75
2019-04-07 02:00:00 7.1 19 Oeste 33 Oeste 0 947.4 0.7 72
2019-04-07 01:00:00 7.4 25 Oeste 41 Oeste 0 947.2 0.9 70
2019-04-07 00:00:00 7.4 19 Oeste 29 Oeste 0 946.9 1.5 71
2019-04-06 23:00:00 7.4 17 Oeste 36 Oeste 0 946.7 2 71
2019-04-06 22:00:00 7.9 23 Oeste 45 Noroeste 0 946.3 2.3 69
2019-04-06 21:00:00 8.4 28 Oeste 53 Oeste 0 945.4 2 65
2019-04-06 20:00:00 9 30 Oeste 59 Oeste 0 944.7 1.5 58
2019-04-06 19:00:00 10.8 38 Oeste 58 Oeste 0 944 0.6 51
2019-04-06 18:00:00 11.1 40 Oeste 69 Oeste 0 943.4 -0.5 47
2019-04-06 17:00:00 11.7 36 Oeste 61 Oeste 0 943.2 -0.9 50
2019-04-06 16:00:00 11.4 40 Oeste 60 Oeste 0 943.4 -0.8 51
2019-04-06 15:00:00 10.2 37 Oeste 63 Oeste 0 943.9 -1.1 60
2019-04-06 14:00:00 9.7 41 Oeste 68 Noroeste 0.6 944.1 -0.2 63
2019-04-06 13:00:00 9.3 38 Oeste 54 Oeste 0 944.2 -0.1 66
2019-04-06 12:00:00 5 19 Oeste 60 Oeste 1 945 0.7 92
2019-04-06 11:00:00 8.5 15 Sudoeste 28 Sudoeste 0 944.3 0.1 69
2019-04-06 10:00:00 6.7 9 Oeste 26 Sudoeste 0 944.3 0.4 78
2019-04-06 09:00:00 5.2 9 Oeste 18 Oeste 0 944.3 1 84
2019-04-06 08:00:00 4.5 7 Oeste 17 Oeste 0 944.2 0.8 87
2019-04-06 07:00:00 5 13 Oeste 29 Noroeste 0 943.9 0.5 84
2019-04-06 06:00:00 5.1 14 Oeste 29 Oeste 0 943.3 -0.2 84
2019-04-06 05:00:00 5.3 16 Oeste 26 Noroeste 0 943.4 0 80
2019-04-06 04:00:00 5.4 19 Oeste 35 Oeste 0 943.4 0.3 79
2019-04-06 03:00:00 5.5 17 Oeste 40 Oeste 0 943.5 0.6 80
2019-04-06 02:00:00 6.6 20 Oeste 33 Oeste 0 943.4 0.7 77
2019-04-06 01:00:00 6.3 9 Oeste 17 Oeste 0 943.1 1 76
2019-04-06 00:00:00 6.3 10 Oeste 22 Oeste 0 942.9 1.9 74
2019-04-05 23:00:00 6.7 13 Oeste 44 Oeste 0 942.7 2.5 73
2019-04-05 22:00:00 7.1 26 Oeste 39 Noroeste 0 942.1 2.2 70
2019-04-05 21:00:00 8.8 17 Oeste 36 Noroeste 0 941 1.3 56
2019-04-05 20:00:00 10.5 27 Oeste 45 Noroeste 0 940.2 1 48
2019-04-05 19:00:00 9.7 24 Oeste 49 Oeste 0 939.9 0.1 53
2019-04-05 18:00:00 9 35 Oeste 57 Oeste 0 939.7 -0.1 59
2019-04-05 17:00:00 9.5 16 Oeste 39 Oeste 0.2 939.2 -1.1 68
2019-04-05 16:00:00 7.9 19 Oeste 32 Oeste 0 939.8 -0.4 79
2019-04-05 15:00:00 9.1 21 Oeste 37 Oeste 0 939.8 -0.4 74
2019-04-05 14:00:00 8.5 22 Oeste 33 Oeste 0.4 940.3 0.2 75
2019-04-05 13:00:00 9.1 14 Sudoeste 30 Sudoeste 0 940.2 0 72
2019-04-05 12:00:00 8.7 14 Sur 26 Sur 0 940.2 0.2 78
2019-04-05 11:00:00 7.5 11 Sur 26 Sur 0.4 940.1 -0.2 86
2019-04-05 10:00:00 6.7 16 Sur 30 Sudoeste 0.4 940.2 -0.3 88
2019-04-05 09:00:00 6.9 4 Sudoeste 19 Oeste 0 940 -0.5 81
2019-04-05 08:00:00 6.7 10 Sudoeste 28 Sudoeste 0.4 940.3 -0.7 87
2019-04-05 07:00:00 7.3 13 Sudoeste 21 Sudoeste 0 940.5 -0.6 81
2019-04-05 06:00:00 6.6 3 Sur 15 Sudoeste 0 940.5 -1 88
2019-04-05 05:00:00 6.7 7 Oeste 14 Oeste 0 941 -0.5 87
2019-04-05 04:00:00 6.9 11 Oeste 33 Oeste 0 941.1 -0.2 82
2019-04-05 03:00:00 7.6 18 Oeste 36 Oeste 0 941.5 0.6 73
2019-04-05 02:00:00 8.8 25 Oeste 45 Oeste 0 941.5 0.4 63
2019-04-05 01:00:00 10.8 12 Oeste 30 Oeste 0 941.3 0.2 40
2019-04-05 00:00:00 10.8 2 Sudoeste 6 Sudoeste 0 940.9 0.1 37
2019-04-04 23:00:00 10.6 3 Sur 7 Oeste 0 941.1 0.3 41
2019-04-04 22:00:00 11.4 3 Oeste 17 Noroeste 0 941.1 0.3 38
2019-04-04 21:00:00 12.9 12 Noroeste 23 Noroeste 0 940.8 -0.4 33
2019-04-04 20:00:00 15.5 13 Noroeste 23 Oeste 0 940.8 -1.2 25
2019-04-04 19:00:00 17.1 16 Oeste 32 Oeste 0 940.8 -2.2 23
2019-04-04 18:00:00 17.2 16 Oeste 31 Oeste 0 941.2 -3 24
2019-04-04 17:00:00 16.9 14 Oeste 32 Oeste 0 942 -3.1 25
2019-04-04 16:00:00 15.7 11 Noroeste 31 Noroeste 0 943 -2.8 24
2019-04-04 15:00:00 15.1 6 Oeste 27 Oeste 0 944.2 -2 23
2019-04-04 14:00:00 14 8 Sudoeste 21 Sudeste 0 945.1 -1.3 21
2019-04-04 13:00:00 12 3 Oeste 16 Norte 0 945.8 -0.6 25
2019-04-04 12:00:00 10.6 9 Norte 23 Norte 0 946.2 -0.2 31
2019-04-04 11:00:00 9.1 6 Norte 19 Norte 0 946.4 0.6 34
2019-04-04 10:00:00 7.1 11 Norte 17 Norte 0 946.4 0.9 44
2019-04-04 09:00:00 4.4 9 Norte 14 Nordeste 0 946.4 1.2 53
2019-04-04 08:00:00 3 5 Este 16 Norte 0 945.8 0.7 58
2019-04-04 07:00:00 3.9 5 Este 11 Nordeste 0 945.5 0.4 53
2019-04-04 06:00:00 4.3 7 Este 19 Nordeste 0 945.2 -0.2 51
2019-04-04 05:00:00 4.7 6 Este 25 Nordeste 0 945.1 -0.5 51
2019-04-04 04:00:00 5.3 9 Nordeste 15 Nordeste 0 945.1 -0.6 48
2019-04-04 03:00:00 6.4 0 Calma 15 Norte 0 945.4 -0.1 44
2019-04-04 02:00:00 7.3 5 Norte 18 Nordeste 0 945.6 0.2 41
2019-04-04 01:00:00 7.9 5 Norte 24 Norte 0 945.7 0.9 40
2019-04-04 00:00:00 8.8 0 Calma 22 Norte 0 945.5 1.5 39
2019-04-03 23:00:00 9.7 2 Sudoeste 16 Norte 0 945.4 1.8 40
2019-04-03 22:00:00 10.5 9 Norte 25 Norte 0 944.8 1.3 38
2019-04-03 21:00:00 12.5 14 Norte 30 Norte 0 944 0.4 34
2019-04-03 20:00:00 14.8 24 Norte 39 Norte 0 943.6 0 30
2019-04-03 19:00:00 16.3 27 Norte 41 Norte 0 943.5 -0.6 27
2019-04-03 18:00:00 16.5 27 Norte 41 Norte 0 943.6 -1.2 29
2019-04-03 17:00:00 19.2 22 Noroeste 45 Noroeste 0 943.6 -1.7 29
2019-04-03 16:00:00 18.9 25 Oeste 53 Noroeste 0 944.1 -2.1 27
2019-04-03 15:00:00 18.2 29 Noroeste 48 Noroeste 0 944.8 -2.5 26
2019-04-03 14:00:00 17.7 26 Oeste 48 Oeste 0 945.3 -2.7 30
2019-04-03 13:00:00 16.8 24 Oeste 36 Oeste 0 946.2 -2 39
2019-04-03 12:00:00 15.1 15 Oeste 23 Oeste 0 947.3 -1.4 53
2019-04-03 11:00:00 13.2 9 Oeste 19 Noroeste 0 948 -0.8 61
2019-04-03 10:00:00 10.7 0 Calma 6 Sur 0 948.2 -1 75
2019-04-03 09:00:00 8.1 3 Sur 7 Sur 0 948.7 -1 81
2019-04-03 08:00:00 7.4 5 Nordeste 8 Nordeste 0 948.8 -1.3 87
2019-04-03 07:00:00 7.7 5 Este 6 Este 0 949.2 -1.4 87
2019-04-03 06:00:00 8.4 0 Calma 14 Norte 0 949.7 -1.7 82
2019-04-03 05:00:00 10.3 3 Norte 8 Oeste 0 950.1 -1.9 73
2019-04-03 04:00:00 10.6 3 Oeste 12 Oeste 0 950.6 -1.7 73
2019-04-03 03:00:00 10.9 6 Oeste 14 Oeste 0 951.4 -1.3 72
2019-04-03 02:00:00 11.4 6 Noroeste 8 Oeste 0 952 -1.1 70
2019-04-03 01:00:00 11.6 6 Oeste 11 Oeste 0 952.3 -0.6 70
2019-04-03 00:00:00 12.3 5 Sudoeste 11 Oeste 0 952.7 -0.1 69
2019-04-02 23:00:00 12.7 5 Oeste 22 Oeste 0 953.1 0.4 70
2019-04-02 22:00:00 13.9 10 Sudoeste 23 Sudoeste 0 952.9 0.1 67
2019-04-02 21:00:00 14.1 8 Sudoeste 18 Oeste 0 952.8 -0.8 66
2019-04-02 20:00:00 16.3 9 Oeste 18 Oeste 0 952.7 -0.5 57
2019-04-02 19:00:00 16.6 9 Sudoeste 27 Sur 0 952.8 -0.7 58
2019-04-02 18:00:00 14.2 11 Sudoeste 36 Oeste 0 953.6 -0.4 69
2019-04-02 17:00:00 17.8 20 Norte 32 Noroeste 0 953.2 -1.5 50
2019-04-02 16:00:00 19.1 12 Sudoeste 28 Sudoeste 0.2 953.5 -2 43
2019-04-02 15:00:00 19.7 12 Oeste 23 Oeste 0 954 -2.1 37
2019-04-02 14:00:00 19.1 17 Oeste 28 Oeste 0 954.7 -1.1 42
2019-04-02 13:00:00 17.5 12 Oeste 21 Oeste 0 955.5 -0.1 55
2019-04-02 12:00:00 14.6 12 Oeste 21 Oeste 0 956.1 0.5 65
2019-04-02 11:00:00 13.7 9 Oeste 15 Noroeste 0 955.8 0.6 72
2019-04-02 10:00:00 11.6 6 Sudoeste 9 Oeste 0 955.6 0.7 79
2019-04-02 09:00:00 8.4 3 Noroeste 6 Noroeste 0 955.6 1 89
2019-04-02 08:00:00 7.8 4 Norte 8 Noroeste 0 955.2 0.2 87
2019-04-02 07:00:00 8.2 6 Noroeste 9 Noroeste 0 954.9 -0.4 84
2019-04-02 06:00:00 9.4 4 Noroeste 5 Noroeste 0 954.6 -0.7 80
2019-04-02 05:00:00 9.8 4 Norte 9 Noroeste 0 955 -0.3 79
2019-04-02 04:00:00 9.4 5 Oeste 6 Oeste 0 955.3 -0.1 79
2019-04-02 03:00:00 10.1 4 Noroeste 5 Noroeste 0 955.3 0.1 77
2019-04-02 02:00:00 10.4 2 Noroeste 7 Sudoeste 0 955.3 0.2 76
2019-04-02 01:00:00 11 4 Oeste 12 Oeste 0 955.4 1.2 75
2019-04-02 00:00:00 11.7 4 Oeste 13 Oeste 0 955.2 1.7 74
2019-04-01 23:00:00 12 5 Sudoeste 11 Sur 0 955.1 2.3 83
2019-04-01 22:00:00 12.9 2 Sudeste 5 Este 0 954.2 2 68
2019-04-01 21:00:00 13.2 3 Este 26 Sur 0.2 953.5 1.2 74
2019-04-01 20:00:00 14.4 18 Sur 26 Sur 0.4 952.8 0.3 69
2019-04-01 19:00:00 18.5 8 Sudeste 15 Sudeste 0 952.2 -0.6 44
2019-04-01 18:00:00 18.3 9 Sudeste 20 Sudeste 0 952.3 -1.2 44
2019-04-01 17:00:00 19 9 Nordeste 18 Este 0 952.5 -1.7 44
2019-04-01 16:00:00 17.9 4 Sudoeste 18 Sur 0 952.8 -1.6 46
2019-04-01 15:00:00 17.4 6 Este 13 Nordeste 0 953.5 -1 52
2019-04-01 14:00:00 15 7 Este 15 Sudeste 0 954.2 0.1 62
2019-04-01 13:00:00 14.7 11 Este 18 Este 0 954.4 0.7 65
2019-04-01 12:00:00 13.9 6 Sudeste 17 Este 0 954.5 1.1 73
2019-04-01 11:00:00 11.4 12 Sudeste 18 Sudeste 0 954.1 1.2 83
2019-04-01 10:00:00 10.6 8 Este 18 Sudeste 0 953.7 1 88
2019-04-01 09:00:00 9.8 10 Este 19 Este 0 953.4 0.7 92
2019-04-01 08:00:00 10 14 Este 19 Este 0 952.9 0.1 89
2019-04-01 07:00:00 10.1 9 Nordeste 13 Nordeste 0 952.7 -0.3 90
2019-04-01 06:00:00 9.9 8 Nordeste 14 Nordeste 0 952.7 -0.4 90
2019-04-01 05:00:00 10 3 Nordeste 5 Nordeste 0 952.8 -0.4 91
2019-04-01 04:00:00 10 4 Este 12 Este 0 953 -0.4 91
2019-04-01 03:00:00 9.9 9 Este 19 Este 0 953.1 -0.4 92
2019-04-01 02:00:00 10.5 13 Sudeste 21 Sudeste 0 953.2 0 89
2019-04-01 01:00:00 10.7 7 Este 12 Este 0 953.4 0.7 87
2019-04-01 00:00:00 10.5 7 Este 18 Sudeste 0 953.5 1.3 88
2019-03-31 23:00:00 10.8 13 Sudeste 19 Sudeste 0 953.2 1.5 84
2019-03-31 22:00:00 10.7 9 Sudeste 23 Sudeste 0 952.7 1 84
2019-03-31 21:00:00 11.7 17 Sudeste 28 Este 0 952.2 0.3 77
2019-03-31 20:00:00 12.8 16 Este 29 Sudeste 0 951.7 -0.6 67
2019-03-31 19:00:00 14.2 14 Este 23 Este 0 951.7 -1.2 60
2019-03-31 18:00:00 13.9 16 Este 28 Este 0 951.9 -1.7 63
2019-03-31 17:00:00 13.2 10 Este 22 Este 0 952.3 -1.8 71
2019-03-31 16:00:00 11.3 9 Este 19 Este 0.2 952.9 -1.5 82
2019-03-31 15:00:00 10.4 12 Este 19 Este 0.2 953.6 -1 86
2019-03-31 14:00:00 10.2 16 Este 27 Este 0 954.1 -0.3 82
2019-03-31 13:00:00 11 17 Este 29 Este 0 954.4 0.3 69
2019-03-31 12:00:00 10.7 18 Sudeste 27 Sudeste 0 954.6 0.8 68
2019-03-31 11:00:00 10.6 17 Sudeste 26 Sudeste 0 954.4 0.8 69
2019-03-31 10:00:00 10.4 18 Sudeste 29 Este 0 954.1 0.5 66
2019-03-31 09:00:00 9.6 16 Este 33 Este 0 953.8 0.4 67
2019-03-31 08:00:00 9.2 18 Este 27 Este 0 953.6 -0.4 67
2019-03-31 07:00:00 9.6 15 Este 27 Este 0 953.6 -1.1 66
2019-03-31 06:00:00 10 14 Este 34 Sudeste 0 953.4 -1.3 63
2019-03-31 05:00:00 10.4 24 Este 39 Este 0 954 -0.8 64
2019-03-31 03:00:00 11.7 24 Este 36 Este 0 954.7 -0.8 61
2019-03-31 01:00:00 12.4 21 Este 39 Este 0 954.8 -0.6 57
2019-03-31 00:00:00 13.4 26 Sudeste 39 Sudeste 0 955.3 0 54
2019-03-30 23:00:00 13.8 13 Este 23 Este 0 955.5 0.8 49
2019-03-30 22:00:00 14.6 14 Este 21 Este 0 955.4 0.6 42
2019-03-30 21:00:00 15 9 Este 14 Este 0 955.3 0.4 37
2019-03-30 20:00:00 17 10 Este 15 Este 0 954.7 -0.1 32
2019-03-30 19:00:00 19.7 9 Este 20 Sudeste 0 954.8 -0.9 28
2019-03-30 18:00:00 20.6 6 Sudeste 24 Este 0 954.9 -1.7 28
2019-03-30 17:00:00 20.8 6 Este 21 Este 0 954.8 -2.9 27
2019-03-30 16:00:00 20.5 12 Sudeste 28 Este 0 955.7 -3.1 25
2019-03-30 15:00:00 19.9 13 Este 26 Sudeste 0 956.6 -3.3 25
2019-03-30 14:00:00 18.9 15 Este 31 Este 0 957.7 -3 35
2019-03-30 13:00:00 16.9 17 Este 30 Sur 0 958.8 -2 41
2019-03-30 12:00:00 14.7 12 Sudeste 25 Sudeste 0 959.9 -1.1 48
2019-03-30 11:00:00 12.3 13 Este 27 Este 0 960.7 0.2 54
2019-03-30 10:00:00 10.3 17 Este 28 Sudeste 0 960.8 0.3 60
2019-03-30 09:00:00 8.5 17 Este 27 Este 0 961 0.7 63
2019-03-30 08:00:00 6.7 18 Este 29 Este 0 960.5 0.2 66
2019-03-30 07:00:00 6.2 19 Este 30 Este 0 960.5 0.4 66
2019-03-30 06:00:00 6.7 16 Este 34 Este 0 960.3 0 65
2019-03-30 05:00:00 7.2 21 Este 34 Este 0 960.3 -0.4 64
2019-03-30 04:00:00 8 19 Este 32 Este 0 960.1 -0.7 59
2019-03-30 03:00:00 8.8 18 Este 35 Este 0 960.3 -0.7 57
2019-03-30 02:00:00 9.6 22 Este 43 Este 0 960.7 -0.4 55
2019-03-30 01:00:00 10.4 27 Sudeste 42 Este 0 960.8 0 53
2019-03-30 00:00:00 11.2 25 Sudeste 39 Sudeste 0 961 0.5 52
2019-03-29 23:00:00 12.4 20 Este 33 Sudeste 0 961.1 1.4 43
2019-03-29 22:00:00 13.3 15 Este 22 Sudeste 0 960.8 1.4 36
2019-03-29 21:00:00 14.2 13 Este 20 Este 0 960.5 1.2 34
2019-03-29 20:00:00 15.3 14 Este 24 Este 0 959.7 0.3 32
2019-03-29 19:00:00 17.8 16 Este 28 Este 0 959.4 -0.5 27
2019-03-29 18:00:00 18.4 13 Este 26 Sudeste 0 959.3 -1.4 23
2019-03-29 17:00:00 20.1 5 Sudoeste 32 Sur 0 959.4 -2.3 17
2019-03-29 16:00:00 18.7 8 Este 36 Este 0 959.9 -2.5 22
2019-03-29 15:00:00 19.3 18 Este 33 Sudeste 0 960.7 -2.4 21
2019-03-29 14:00:00 18.2 21 Este 37 Este 0 961.7 -2.1 24
2019-03-29 13:00:00 16.8 18 Sudeste 37 Este 0 962.4 -1.9 25
2019-03-29 12:00:00 16.1 22 Sudeste 38 Sudeste 0 963.1 -1.3 26
2019-03-29 11:00:00 14.8 20 Este 37 Este 0 963.8 -0.6 30
2019-03-29 10:00:00 11.1 19 Este 29 Este 0 964.3 0.5 37
2019-03-29 09:00:00 8.8 20 Este 31 Este 0 964.4 0.9 41
2019-03-29 08:00:00 6.9 14 Sudeste 23 Sudeste 0 964.4 1.3 45
2019-03-29 07:00:00 6.2 16 Este 30 Este 0 963.8 0.7 46
2019-03-29 06:00:00 6.5 17 Este 31 Este 0 963.5 0.2 47
2019-03-29 05:00:00 7 19 Este 30 Este 0 963.1 -0.2 45
2019-03-29 04:00:00 7.9 21 Este 31 Este 0 963.1 -0.1 39
2019-03-29 03:00:00 8.2 20 Este 31 Este 0 963.3 0.2 34
2019-03-29 02:00:00 10.1 12 Este 20 Sur 0 963.3 0.3 30
2019-03-29 01:00:00 12 12 Sudeste 23 Sudeste 0 963.2 0.3 28
2019-03-29 00:00:00 11.9 9 Este 14 Este 0 963.1 0.3 28
2019-03-28 23:00:00 12.7 9 Este 12 Sudeste 0 963 0.7 25
2019-03-28 22:00:00 13.2 5 Sudeste 9 Este 0 962.9 0.7 23
2019-03-28 21:00:00 14.3 6 Este 12 Sudeste 0 962.8 0.8 22
2019-03-28 20:00:00 16.6 6 Este 22 Sur 0 962.3 0.2 18
2019-03-28 19:00:00 18.9 16 Sudeste 24 Sur 0 962.2 -0.6 15
2019-03-28 18:00:00 20.3 13 Este 27 Sudeste 0 962 -1.4 15
2019-03-28 17:00:00 20.7 14 Este 30 Este 0 962.1 -2.1 15
2019-03-28 16:00:00 20.7 15 Este 31 Este 0 962.8 -2 14
2019-03-28 15:00:00 20.2 16 Este 30 Sudeste 0 963.4 -2 15
2019-03-28 14:00:00 19.7 17 Sudeste 30 Este 0 964.2 -1.9 16
2019-03-28 13:00:00 19 15 Sudeste 32 Este 0 964.8 -1.4 17
2019-03-28 12:00:00 16.7 16 Este 31 Este 0 965.4 -0.9 19
2019-03-28 11:00:00 13.5 15 Este 23 Este 0 966.1 0.2 27
2019-03-28 10:00:00 10.4 16 Sudeste 26 Sudeste 0 966.2 0.7 37
2019-03-28 09:00:00 8.4 13 Este 30 Este 0 966.3 1.3 44
2019-03-28 08:00:00 6 15 Este 27 Este 0 965.9 1.4 51
2019-03-28 07:00:00 5.1 6 Este 20 Este 0 965.5 1.3 53
2019-03-28 06:00:00 5.6 8 Sudeste 24 Este 0 965 1.1 51
2019-03-28 05:00:00 6 13 Este 23 Este 0 964.5 0.6 46
2019-03-28 04:00:00 7 7 Este 15 Este 0 964.2 0.2 38
2019-03-28 03:00:00 7.9 10 Este 15 Este 0 963.9 0.5 34
2019-03-28 02:00:00 8.3 8 Este 17 Este 0 963.9 1.2 33
2019-03-28 01:00:00 9.2 8 Este 17 Este 0 964 1.8 34
2019-03-28 00:00:00 11.3 6 Este 10 Este 0 963.4 1.6 32
2019-03-27 23:00:00 11.1 5 Este 11 Este 0 962.7 1.4 33
2019-03-27 22:00:00 12.3 4 Sudoeste 6 Sudoeste 0 962.2 1.1 31
2019-03-27 21:00:00 14.8 0 Calma 6 Norte 0 961.8 0.8 25
2019-03-27 20:00:00 16.6 2 Sudeste 10 Este 0 961.3 0.2 23
2019-03-27 19:00:00 18.6 6 Este 19 Este 0 961.1 -0.4 20
2019-03-27 18:00:00 19.2 10 Este 24 Este 0 961 -1 20
2019-03-27 17:00:00 19.7 9 Sudeste 28 Nordeste 0 961.1 -1.7 20
2019-03-27 16:00:00 18.8 6 Nordeste 19 Sudeste 0 961.5 -1.8 22
2019-03-27 15:00:00 18.3 15 Sudeste 26 Este 0 962 -1.8 23
2019-03-27 14:00:00 17.4 13 Este 31 Sudeste 0 962.8 -1.2 25
2019-03-27 13:00:00 16.6 13 Sudeste 30 Este 0 963.3 -0.6 26
2019-03-27 12:00:00 15.2 14 Sudeste 28 Este 0 963.8 -0.2 29
2019-03-27 11:00:00 13.7 14 Sudeste 27 Este 0 964 0.3 34
2019-03-27 10:00:00 10.8 13 Sudeste 22 Este 0 963.9 1.1 53
2019-03-27 09:00:00 8.4 6 Sudeste 14 Este 0 964 1.7 66
2019-03-27 08:00:00 5.9 5 Sudeste 11 Sudeste 0 963.7 1.8 74
2019-03-27 07:00:00 4.8 7 Este 12 Sudeste 0 962.8 1.2 77
2019-03-27 06:00:00 5.2 6 Este 17 Este 0 962.3 0.6 74
2019-03-27 05:00:00 6.1 10 Este 19 Este 0 961.9 1 70
2019-03-27 04:00:00 7.6 14 Este 29 Este 0 961.6 1 65
2019-03-27 03:00:00 8.6 21 Sudeste 46 Este 0 961.7 2 62
2019-03-27 02:00:00 9.8 26 Sudeste 41 Sudeste 0 960.9 1.8 48
2019-03-27 01:00:00 11.3 26 Este 40 Este 0 960.6 2.3 41
2019-03-27 00:00:00 12.5 19 Este 35 Este 0 959.7 2.3 35
2019-03-26 23:00:00 13.5 17 Este 42 Este 0 959.1 2.9 32
2019-03-26 22:00:00 14.6 14 Este 24 Este 0 958.3 2.9 30
2019-03-26 21:00:00 16.4 15 Este 23 Este 0 957.4 2.3 27
2019-03-26 20:00:00 18.3 12 Este 28 Sudeste 0 956.2 1.2 26
2019-03-26 19:00:00 20.8 20 Sudeste 33 Este 0 955.4 0 22
2019-03-26 18:00:00 22.7 17 Sudeste 36 Sudeste 0 955.1 -0.8 19
2019-03-26 17:00:00 23.3 17 Sudeste 35 Sudeste 0 955 -1.6 20
2019-03-26 16:00:00 23.2 22 Este 41 Sudeste 0 955.4 -2.2 19
2019-03-26 15:00:00 22.6 19 Este 35 Sudeste 0 955.9 -2.7 21
2019-03-26 14:00:00 21 17 Este 33 Este 0 956.6 -2.2 25
2019-03-26 13:00:00 19 18 Este 34 Este 0 957.6 -1.3 27
2019-03-26 12:00:00 16.2 18 Sudeste 34 Sudeste 0 958.6 -0.4 33
2019-03-26 11:00:00 14.3 17 Este 24 Este 0 958.8 -0.1 38
2019-03-26 10:00:00 11 12 Sudeste 20 Sudeste 0 958.9 0.3 47
2019-03-26 09:00:00 8.7 8 Sudeste 14 Sudeste 0 959 0.6 53
2019-03-26 08:00:00 6.3 10 Sudeste 19 Este 0 958.9 0.5 60
2019-03-26 07:00:00 4.9 10 Este 17 Sudeste 0 958.6 0.2 63
2019-03-26 06:00:00 5.4 0 Calma 9 Este 0 958.4 0.3 60
2019-03-26 05:00:00 6.4 3 Norte 22 Este 0 958.4 0.3 56
2019-03-26 04:00:00 7.5 13 Este 29 Este 0 958.4 -0.2 51
2019-03-26 03:00:00 9 20 Este 34 Este 0 958.1 0.2 43
2019-03-26 02:00:00 10.2 17 Este 32 Este 0 958.1 0.8 36
2019-03-26 01:00:00 11.3 9 Este 37 Este 0 958.6 2 34
2019-03-26 00:00:00 13.1 24 Este 42 Este 0 957.9 1.7 30
2019-03-25 23:00:00 14.4 20 Nordeste 31 Este 0 957.3 1.4 25
2019-03-25 22:00:00 15.4 11 Este 18 Este 0 956.6 0.8 21
2019-03-25 21:00:00 17.3 13 Este 18 Nordeste 0 956.2 0.4 17
2019-03-25 20:00:00 18.8 14 Nordeste 23 Nordeste 0 955.9 -0.3 16
2019-03-25 19:00:00 21.3 15 Nordeste 27 Nordeste 0 955.8 -1 17
2019-03-25 18:00:00 22.8 11 Nordeste 25 Este 0 955.8 -1.9 17
2019-03-25 17:00:00 23.2 18 Este 31 Nordeste 0 956.2 -2.6 19
2019-03-25 16:00:00 23 16 Este 34 Este 0 956.8 -3.2 18
2019-03-25 15:00:00 22.6 13 Nordeste 30 Este 0 957.7 -3.1 20
2019-03-25 14:00:00 22 9 Nordeste 21 Nordeste 0 958.8 -2.7 22
2019-03-25 13:00:00 21.3 9 Este 19 Este 0 960 -1.7 23
2019-03-25 12:00:00 19 8 Este 15 Sudeste 0 960.8 -0.9 29
2019-03-25 11:00:00 15.7 8 Sudeste 17 Sudeste 0 961.5 -0.1 36
2019-03-25 10:00:00 12.4 11 Sudeste 17 Sudeste 0 961.7 0.4 41
2019-03-25 09:00:00 9.6 4 Sur 9 Sudeste 0 961.7 0.4 48
2019-03-25 08:00:00 7.1 2 Sur 9 Norte 0 961.6 0.6 57
2019-03-25 07:00:00 6.8 5 Norte 7 Nordeste 0 961.3 0 51
2019-03-25 06:00:00 7.4 3 Norte 9 Sudeste 0 961.3 -0.1 51
2019-03-25 05:00:00 8 2 Sudoeste 15 Este 0 961 -0.4 47
2019-03-25 04:00:00 8.8 3 Nordeste 12 Este 0 961.3 0 45
2019-03-25 03:00:00 9 2 Sur 10 Este 0 961.4 0.4 46
2019-03-25 02:00:00 10.3 3 Sur 8 Sudeste 0 961.4 0.5 45
2019-03-25 01:00:00 11.4 3 Sudeste 12 Este 0 961.3 0.5 41
2019-03-25 00:00:00 12.9 10 Sudeste 13 Sudeste 0 961 0.7 37
2019-03-24 23:00:00 14.9 8 Este 17 Sudeste 0 960.9 1 33
2019-03-24 22:00:00 15.2 7 Este 10 Sudeste 0 960.8 1.1 35
2019-03-24 21:00:00 15.9 6 Sudeste 10 Este 0 960.3 0.7 33
2019-03-24 20:00:00 18.2 7 Este 19 Sudeste 0 959.9 0.5 29
2019-03-24 19:00:00 20.3 12 Sudeste 35 Sudeste 0 959.7 -0.2 25
2019-03-24 18:00:00 21.4 16 Sudeste 36 Este 0 959.6 -0.8 24
2019-03-24 17:00:00 22.1 21 Sudeste 32 Sudeste 0 959.4 -1.7 23
2019-03-24 16:00:00 22.4 19 Sudeste 39 Sudeste 0 959.9 -2 23
2019-03-24 15:00:00 22.2 22 Sudeste 38 Sudeste 0 960.4 -2.3 24
2019-03-24 14:00:00 21.7 21 Este 46 Este 0 961.1 -2.2 24
2019-03-24 13:00:00 20.6 20 Sudeste 32 Este 0 961.9 -1.5 27
2019-03-24 12:00:00 18.9 14 Sudeste 28 Sudeste 0 962.7 -0.5 33
2019-03-24 11:00:00 17 18 Este 30 Este 0 963.3 0.3 37
2019-03-24 10:00:00 15 14 Este 25 Este 0 963.4 0.9 43
2019-03-24 09:00:00 11 8 Este 13 Este 0 963.2 0.8 58
2019-03-24 08:00:00 8 7 Sudeste 12 Sudeste 0 963 0.7 66
2019-03-24 07:00:00 8.1 7 Sudeste 12 Este 0 962.5 0.1 68
2019-03-24 06:00:00 9.5 6 Este 23 Este 0 962.4 -0.3 62
2019-03-24 05:00:00 10.3 14 Este 22 Este 0 962.3 -0.6 61
2019-03-24 04:00:00 10.8 14 Este 23 Este 0 962.4 -0.6 59
2019-03-24 03:00:00 11.3 13 Este 22 Este 0 962.7 -0.4 56
2019-03-24 02:00:00 11.4 13 Este 20 Este 0 962.9 0 53
2019-03-24 01:00:00 12.4 11 Este 22 Sudeste 0 963 0.2 50
2019-03-24 00:00:00 13.6 12 Este 20 Este 0 963.1 0.6 47
2019-03-23 23:00:00 13.5 8 Este 17 Sudeste 0 962.9 1 48
2019-03-23 22:00:00 13.8 8 Sudeste 14 Este 0 962.8 1.4 47
2019-03-23 21:00:00 14.9 8 Este 17 Sudeste 0 962.5 1.6 42
2019-03-23 20:00:00 16.8 13 Sudeste 28 Sudeste 0 961.9 0.8 37
2019-03-23 19:00:00 18.3 17 Sudeste 37 Sudeste 0 961.4 -0.1 33
2019-03-23 18:00:00 19.2 24 Sudeste 41 Sudeste 0 960.9 -1.2 30
2019-03-23 17:00:00 19.6 19 Sudeste 35 Sudeste 0 961.1 -1.6 29
2019-03-23 16:00:00 20.1 15 Sudeste 39 Sudeste 0 961.5 -2.2 28
2019-03-23 15:00:00 20.8 23 Sudeste 42 Este 0 962.1 -2.5 26
2019-03-23 14:00:00 20.9 21 Sudeste 37 Sudeste 0 962.7 -2.7 27
2019-03-23 13:00:00 19.5 16 Este 33 Este 0 963.7 -2.1 33
2019-03-23 12:00:00 17.6 13 Sudeste 23 Sudeste 0 964.6 -1.1 37
2019-03-23 11:00:00 14.5 12 Sudeste 19 Sur 0 965.4 -0.1 46
2019-03-23 10:00:00 11.6 7 Sur 12 Sur 0 965.8 0.6 55
2019-03-23 09:00:00 9 4 Sur 9 Este 0 965.7 0.6 60
2019-03-23 08:00:00 6.6 4 Este 9 Este 0 965.5 0.3 67
2019-03-23 07:00:00 5.8 5 Este 9 Este 0 965.2 0.1 70
2019-03-23 06:00:00 6.5 6 Este 15 Este 0 965.1 -0.2 67
2019-03-23 05:00:00 7.5 6 Este 13 Este 0 965.2 -0.2 64
2019-03-23 04:00:00 7.6 7 Nordeste 12 Este 0 965.1 -0.2 63
2019-03-23 03:00:00 9 9 Este 16 Este 0 965.3 0 59
2019-03-23 02:00:00 10.1 13 Este 19 Este 0 965.4 0 55
2019-03-23 01:00:00 12.3 8 Sudeste 27 Sudeste 0 965.3 0.5 49
2019-03-23 00:00:00 13.1 15 Sudeste 27 Sudeste 0 965.3 1.3 47
2019-03-22 23:00:00 12.9 8 Este 14 Este 0 965.4 2 44
2019-03-22 22:00:00 13.2 10 Este 17 Este 0 964.8 1.8 39
2019-03-22 21:00:00 13.7 12 Este 17 Este 0 964 1.2 34
2019-03-22 20:00:00 15.7 10 Este 12 Nordeste 0 963.4 0.2 29
2019-03-22 19:00:00 18.1 6 Nordeste 24 Este 0 963 -0.8 26
2019-03-22 18:00:00 19.1 10 Nordeste 26 Este 0 962.8 -1.6 24
2019-03-22 17:00:00 19.4 13 Este 28 Este 0 963.2 -1.9 23
2019-03-22 16:00:00 19 13 Sudeste 30 Sudeste 0 963.8 -2.1 23
2019-03-22 15:00:00 18.3 12 Este 29 Nordeste 0 964.4 -2.1 25
2019-03-22 14:00:00 17.5 14 Sudeste 32 Este 0 965.1 -1.8 25
2019-03-22 13:00:00 16.3 14 Sudeste 25 Este 0 965.9 -1.1 29
2019-03-22 12:00:00 14.3 17 Este 27 Este 0 966.5 -0.5 34
2019-03-22 11:00:00 12.2 14 Este 23 Este 0 966.9 0 40
2019-03-22 10:00:00 10.2 12 Este 18 Este 0 967 0.5 45
2019-03-22 09:00:00 6.4 8 Este 16 Este 0 967 0.8 57
2019-03-22 08:00:00 3.5 9 Este 22 Este 0 966.9 1.4 63
2019-03-22 07:00:00 3.5 10 Este 15 Este 0 966.5 1.1 60
2019-03-22 06:00:00 4.6 13 Este 23 Este 0 966.2 0.9 52
2019-03-22 05:00:00 6.5 14 Este 23 Este 0 965.5 0.1 44
2019-03-22 04:00:00 7 15 Este 27 Sudeste 0 965.4 0.1 42
2019-03-22 03:00:00 8.4 18 Sudeste 29 Este 0 965.3 -0.1 39
2019-03-22 02:00:00 8.4 15 Este 23 Sudeste 0 965.4 0.3 40
2019-03-22 01:00:00 8.1 14 Este 22 Este 0 965.3 0.7 41
2019-03-22 00:00:00 8.8 9 Este 17 Sudeste 0 965.4 1.2 39
2019-03-21 23:00:00 8.4 3 Este 17 Este 0 965.1 1.3 40
2019-03-21 22:00:00 10.8 3 Sur 7 Nordeste 0 964.6 0.9 36
2019-03-21 21:00:00 12.2 4 Sudeste 10 Este 0 964.2 0.7 31
2019-03-21 20:00:00 13 8 Este 10 Este 0 963.8 0.2 29
2019-03-21 19:00:00 14.8 8 Nordeste 19 Sudeste 0 963.7 -0.3 26
2019-03-21 18:00:00 16.5 12 Este 24 Este 0 963.5 -1.1 24
2019-03-21 17:00:00 16.8 14 Este 25 Este 0 963.6 -1.7 25
2019-03-21 16:00:00 17.1 7 Este 28 Este 0 964 -2.1 24
2019-03-21 15:00:00 16.7 14 Este 29 Este 0 964.6 -2.1 24
2019-03-21 14:00:00 15.8 12 Este 24 Sudeste 0 965.3 -1.8 27
2019-03-21 13:00:00 14.9 15 Sudeste 28 Este 0 966.1 -1.3 30
2019-03-21 12:00:00 13.8 13 Este 27 Este 0 966.7 -0.8 35
2019-03-21 11:00:00 11.3 12 Este 22 Este 0 967.1 0 45
2019-03-21 10:00:00 8.9 13 Este 24 Sudeste 0 967.4 1.1 51
2019-03-21 09:00:00 6.6 14 Este 22 Este 0 967.5 1.5 56
2019-03-21 08:00:00 4.8 12 Este 22 Este 0 967.1 1.7 63
2019-03-21 07:00:00 3.8 14 Este 22 Este 0 966.3 1.3 66
2019-03-21 06:00:00 5.3 12 Este 25 Este 0 966 1 59
2019-03-21 05:00:00 5.7 17 Este 27 Este 0 965.4 0.3 57
2019-03-21 04:00:00 7.1 15 Este 29 Este 0 965 -0.2 56
2019-03-21 03:00:00 7.8 12 Sudeste 22 Sudeste 0 965 -0.4 55
2019-03-21 02:00:00 6.1 12 Este 19 Sudeste 0 965.1 0.1 54
2019-03-21 01:00:00 6.1 6 Sudeste 10 Nordeste 0 965.2 0.5 53
2019-03-21 00:00:00 7.4 4 Sur 12 Norte 0 965.4 0.9 49